createdAt,value
2018-06-28T00:00:05.829Z,49
2018-06-28T00:00:18.302Z,49
2018-06-28T00:00:30.777Z,38
2018-06-28T00:00:43.337Z,38
2018-06-28T00:00:55.760Z,38
2018-06-28T00:01:08.279Z,38
2018-06-28T00:01:20.828Z,38
2018-06-28T00:01:33.242Z,38
2018-06-28T00:01:45.649Z,348
2018-06-28T00:01:58.052Z,348
2018-06-28T00:02:10.472Z,348
2018-06-28T00:02:22.949Z,348
2018-06-28T00:02:35.377Z,350
2018-06-28T00:02:47.791Z,350
2018-06-28T00:03:00.209Z,350
2018-06-28T00:03:12.645Z,350
2018-06-28T00:03:25.073Z,350
2018-06-28T00:03:37.491Z,350
2018-06-28T00:03:49.905Z,351
2018-06-28T00:04:02.336Z,355
2018-06-28T00:04:14.805Z,355
2018-06-28T00:04:27.210Z,49
2018-06-28T00:04:39.622Z,360
2018-06-28T00:04:52.040Z,350
2018-06-28T00:05:04.465Z,12
2018-06-28T00:05:16.932Z,355
2018-06-28T00:05:29.359Z,355
2018-06-28T00:05:41.772Z,5
2018-06-28T00:05:54.185Z,351
2018-06-28T00:06:06.592Z,335
2018-06-28T00:06:19.031Z,331
2018-06-28T00:06:31.445Z,351
2018-06-28T00:06:43.882Z,5
2018-06-28T00:06:56.298Z,10
2018-06-28T00:07:08.871Z,355
2018-06-28T00:07:21.283Z,345
2018-06-28T00:07:33.702Z,347
2018-06-28T00:07:46.119Z,347
2018-06-28T00:07:58.535Z,347
2018-06-28T00:08:11.056Z,347
2018-06-28T00:08:23.466Z,349
2018-06-28T00:08:35.862Z,349
2018-06-28T00:08:48.541Z,355
2018-06-28T00:09:01.924Z,355
2018-06-28T00:09:14.393Z,229
2018-06-28T00:09:26.801Z,229
2018-06-28T00:09:39.248Z,309
2018-06-28T00:09:51.678Z,355
2018-06-28T00:10:04.100Z,360
2018-06-28T00:10:16.520Z,12
2018-06-28T00:10:28.938Z,46
2018-06-28T00:10:41.358Z,355
2018-06-28T00:10:53.775Z,329
2018-06-28T00:11:06.192Z,340
2018-06-28T00:11:18.593Z,340
2018-06-28T00:11:30.993Z,340
2018-06-28T00:11:43.405Z,340
2018-06-28T00:11:55.824Z,340
2018-06-28T00:12:08.244Z,340
2018-06-28T00:12:20.654Z,340
2018-06-28T00:12:33.059Z,340
2018-06-28T00:12:45.475Z,340
2018-06-28T00:12:57.909Z,340
2018-06-28T00:13:10.334Z,309
2018-06-28T00:13:22.796Z,302
2018-06-28T00:13:35.220Z,302
2018-06-28T00:13:47.621Z,112
2018-06-28T00:14:00.044Z,122
2018-06-28T00:14:12.476Z,115
2018-06-28T00:14:24.896Z,115
2018-06-28T00:14:37.327Z,105
2018-06-28T00:14:49.775Z,344
2018-06-28T00:15:02.191Z,346
2018-06-28T00:15:14.623Z,346
2018-06-28T00:15:27.046Z,346
2018-06-28T00:15:39.460Z,328
2018-06-28T00:15:51.896Z,326
2018-06-28T00:16:04.362Z,326
2018-06-28T00:16:16.791Z,5
2018-06-28T00:16:29.203Z,5
2018-06-28T00:16:41.625Z,360
2018-06-28T00:16:54.038Z,350
2018-06-28T00:17:06.447Z,9
2018-06-28T00:17:18.902Z,49
2018-06-28T00:17:31.320Z,43
2018-06-28T00:17:43.726Z,43
2018-06-28T00:17:56.178Z,43
2018-06-28T00:18:08.760Z,43
2018-06-28T00:18:21.167Z,50
2018-06-28T00:18:33.564Z,51
2018-06-28T00:18:45.979Z,50
2018-06-28T00:18:58.387Z,46
2018-06-28T00:19:10.790Z,46
2018-06-28T00:19:23.208Z,46
2018-06-28T00:19:35.626Z,37
2018-06-28T00:19:48.043Z,18
2018-06-28T00:20:00.453Z,41
2018-06-28T00:20:12.874Z,40
2018-06-28T00:20:25.271Z,40
2018-06-28T00:20:37.682Z,40
2018-06-28T00:20:50.084Z,40
2018-06-28T00:21:02.514Z,40
2018-06-28T00:21:14.948Z,40
2018-06-28T00:21:27.371Z,40
2018-06-28T00:21:39.787Z,40
2018-06-28T00:21:52.204Z,111
2018-06-28T00:22:04.626Z,80
2018-06-28T00:22:17.045Z,57
2018-06-28T00:22:29.447Z,22
2018-06-28T00:22:41.864Z,22
2018-06-28T00:22:54.270Z,22
2018-06-28T00:23:06.666Z,22
2018-06-28T00:23:19.104Z,22
2018-06-28T00:23:31.523Z,31
2018-06-28T00:23:43.930Z,30
2018-06-28T00:23:56.350Z,30
2018-06-28T00:24:08.896Z,30
2018-06-28T00:24:21.300Z,30
2018-06-28T00:24:33.764Z,30
2018-06-28T00:24:46.191Z,30
2018-06-28T00:24:58.605Z,30
2018-06-28T00:25:11.015Z,30
2018-06-28T00:25:23.432Z,29
2018-06-28T00:25:35.845Z,29
2018-06-28T00:25:48.324Z,29
2018-06-28T00:26:00.731Z,29
2018-06-28T00:26:13.132Z,29
2018-06-28T00:26:25.535Z,29
2018-06-28T00:26:37.933Z,29
2018-06-28T00:26:50.334Z,30
2018-06-28T00:27:02.746Z,27
2018-06-28T00:27:15.154Z,27
2018-06-28T00:27:27.576Z,13
2018-06-28T00:27:40.050Z,13
2018-06-28T00:27:52.442Z,17
2018-06-28T00:28:04.854Z,17
2018-06-28T00:28:17.288Z,17
2018-06-28T00:28:29.697Z,46
2018-06-28T00:28:42.108Z,26
2018-06-28T00:28:54.519Z,360
2018-06-28T00:29:06.920Z,23
2018-06-28T00:29:19.334Z,355
2018-06-28T00:29:31.754Z,5
2018-06-28T00:29:44.203Z,30
2018-06-28T00:29:56.617Z,62
2018-06-28T00:30:09.082Z,61
2018-06-28T00:30:21.509Z,9
2018-06-28T00:30:33.937Z,9
2018-06-28T00:30:46.349Z,355
2018-06-28T00:30:58.760Z,355
2018-06-28T00:31:11.223Z,22
2018-06-28T00:31:23.634Z,22
2018-06-28T00:31:36.053Z,22
2018-06-28T00:31:48.463Z,17
2018-06-28T00:32:00.887Z,360
2018-06-28T00:32:13.302Z,360
2018-06-28T00:32:25.714Z,360
2018-06-28T00:32:38.251Z,59
2018-06-28T00:32:50.669Z,52
2018-06-28T00:33:03.073Z,328
2018-06-28T00:33:15.560Z,327
2018-06-28T00:33:28.032Z,327
2018-06-28T00:33:40.424Z,355
2018-06-28T00:33:52.828Z,11
2018-06-28T00:34:05.232Z,9
2018-06-28T00:34:17.630Z,11
2018-06-28T00:34:30.044Z,11
2018-06-28T00:34:42.452Z,11
2018-06-28T00:34:54.872Z,360
2018-06-28T00:35:07.290Z,18
2018-06-28T00:35:19.710Z,17
2018-06-28T00:35:32.119Z,355
2018-06-28T00:35:44.530Z,350
2018-06-28T00:35:57.090Z,347
2018-06-28T00:36:09.739Z,11
2018-06-28T00:36:22.158Z,19
2018-06-28T00:36:34.617Z,15
2018-06-28T00:36:47.029Z,5
2018-06-28T00:36:59.429Z,338
2018-06-28T00:37:11.853Z,355
2018-06-28T00:37:24.317Z,5
2018-06-28T00:37:36.771Z,15
2018-06-28T00:37:49.179Z,24
2018-06-28T00:38:01.587Z,360
2018-06-28T00:38:14.001Z,23
2018-06-28T00:38:26.400Z,19
2018-06-28T00:38:38.794Z,19
2018-06-28T00:38:51.206Z,19
2018-06-28T00:39:03.627Z,50
2018-06-28T00:39:16.067Z,50
2018-06-28T00:39:28.487Z,41
2018-06-28T00:39:40.910Z,355
2018-06-28T00:39:53.326Z,348
2018-06-28T00:40:05.748Z,46
2018-06-28T00:40:18.156Z,39
2018-06-28T00:40:30.580Z,39
2018-06-28T00:40:43.009Z,27
2018-06-28T00:40:55.419Z,16
2018-06-28T00:41:07.880Z,347
2018-06-28T00:41:20.296Z,355
2018-06-28T00:41:32.701Z,5
2018-06-28T00:41:45.115Z,17
2018-06-28T00:41:57.527Z,15
2018-06-28T00:42:09.934Z,42
2018-06-28T00:42:22.351Z,30
2018-06-28T00:42:34.805Z,360
2018-06-28T00:42:47.262Z,360
2018-06-28T00:42:59.673Z,5
2018-06-28T00:43:12.078Z,5
2018-06-28T00:43:24.496Z,14
2018-06-28T00:43:36.995Z,360
2018-06-28T00:43:50.199Z,329
2018-06-28T00:44:02.637Z,342
2018-06-28T00:44:15.047Z,5
2018-06-28T00:44:27.451Z,355
2018-06-28T00:44:39.863Z,344
2018-06-28T00:44:52.266Z,344
2018-06-28T00:45:04.722Z,344
2018-06-28T00:45:17.133Z,338
2018-06-28T00:45:29.559Z,338
2018-06-28T00:45:41.968Z,350
2018-06-28T00:45:54.587Z,5
2018-06-28T00:46:06.995Z,9
2018-06-28T00:46:19.393Z,9
2018-06-28T00:46:31.804Z,9
2018-06-28T00:46:44.215Z,355
2018-06-28T00:46:56.614Z,22
2018-06-28T00:47:09.041Z,336
2018-06-28T00:47:21.457Z,20
2018-06-28T00:47:33.926Z,22
2018-06-28T00:47:46.324Z,22
2018-06-28T00:47:58.735Z,22
2018-06-28T00:48:11.145Z,22
2018-06-28T00:48:23.555Z,22
2018-06-28T00:48:35.983Z,346
2018-06-28T00:48:48.535Z,13
2018-06-28T00:49:00.947Z,9
2018-06-28T00:49:13.381Z,16
2018-06-28T00:49:25.843Z,355
2018-06-28T00:49:38.249Z,351
2018-06-28T00:49:50.654Z,360
2018-06-28T00:50:03.053Z,5
2018-06-28T00:50:15.501Z,20
2018-06-28T00:50:27.966Z,30
2018-06-28T00:50:40.368Z,30
2018-06-28T00:50:52.777Z,30
2018-06-28T00:51:05.185Z,30
2018-06-28T00:51:17.608Z,30
2018-06-28T00:51:30.015Z,30
2018-06-28T00:51:42.418Z,30
2018-06-28T00:51:54.835Z,17
2018-06-28T00:52:07.244Z,355
2018-06-28T00:52:19.676Z,11
2018-06-28T00:52:32.084Z,5
2018-06-28T00:52:44.491Z,348
2018-06-28T00:52:56.925Z,5
2018-06-28T00:53:09.342Z,15
2018-06-28T00:53:21.754Z,5
2018-06-28T00:53:34.153Z,338
2018-06-28T00:53:46.578Z,314
2018-06-28T00:53:58.996Z,314
2018-06-28T00:54:11.420Z,314
2018-06-28T00:54:23.838Z,330
2018-06-28T00:54:36.241Z,49
2018-06-28T00:54:48.657Z,28
2018-06-28T00:55:01.065Z,28
2018-06-28T00:55:13.624Z,53
2018-06-28T00:55:26.032Z,53
2018-06-28T00:55:38.452Z,53
2018-06-28T00:55:50.991Z,50
2018-06-28T00:56:03.404Z,50
2018-06-28T00:56:15.807Z,46
2018-06-28T00:56:28.225Z,349
2018-06-28T00:56:40.635Z,355
2018-06-28T00:56:53.055Z,336
2018-06-28T00:57:05.454Z,349
2018-06-28T00:57:17.866Z,342
2018-06-28T00:57:30.269Z,343
2018-06-28T00:57:42.671Z,343
2018-06-28T00:57:55.104Z,343
2018-06-28T00:58:07.509Z,345
2018-06-28T00:58:19.913Z,46
2018-06-28T00:58:32.315Z,59
2018-06-28T00:58:44.713Z,46
2018-06-28T00:58:57.115Z,24
2018-06-28T00:59:09.530Z,5
2018-06-28T00:59:21.940Z,30
2018-06-28T00:59:34.360Z,32
2018-06-28T00:59:46.779Z,19
2018-06-28T00:59:59.191Z,30
2018-06-28T01:00:11.642Z,5
2018-06-28T01:00:24.069Z,46
2018-06-28T01:00:36.508Z,36
2018-06-28T01:00:49.099Z,36
2018-06-28T01:01:01.670Z,36
2018-06-28T01:01:14.101Z,34
2018-06-28T01:01:26.636Z,42
2018-06-28T01:01:39.043Z,55
2018-06-28T01:01:51.450Z,44
2018-06-28T01:02:03.890Z,9
2018-06-28T01:02:16.322Z,5
2018-06-28T01:02:28.709Z,68
2018-06-28T01:02:41.126Z,69
2018-06-28T01:02:53.531Z,49
2018-06-28T01:03:05.962Z,346
2018-06-28T01:03:18.422Z,355
2018-06-28T01:03:30.842Z,355
2018-06-28T01:03:43.236Z,355
2018-06-28T01:03:55.633Z,329
2018-06-28T01:04:08.045Z,13
2018-06-28T01:04:20.461Z,19
2018-06-28T01:04:32.867Z,5
2018-06-28T01:04:45.275Z,10
2018-06-28T01:04:57.684Z,10
2018-06-28T01:05:10.152Z,5
2018-06-28T01:05:22.579Z,331
2018-06-28T01:05:34.989Z,340
2018-06-28T01:05:47.418Z,343
2018-06-28T01:05:59.837Z,360
2018-06-28T01:06:12.254Z,11
2018-06-28T01:06:24.736Z,11
2018-06-28T01:06:37.156Z,30
2018-06-28T01:06:49.560Z,60
2018-06-28T01:07:01.980Z,59
2018-06-28T01:07:14.535Z,46
2018-06-28T01:07:26.934Z,289
2018-06-28T01:07:39.346Z,289
2018-06-28T01:07:51.808Z,289
2018-06-28T01:08:04.217Z,312
2018-06-28T01:08:16.778Z,326
2018-06-28T01:08:29.180Z,327
2018-06-28T01:08:41.596Z,327
2018-06-28T01:08:54.088Z,327
2018-06-28T01:09:06.515Z,33
2018-06-28T01:09:18.919Z,345
2018-06-28T01:09:31.334Z,9
2018-06-28T01:09:43.748Z,32
2018-06-28T01:09:56.159Z,32
2018-06-28T01:10:08.574Z,32
2018-06-28T01:10:20.994Z,32
2018-06-28T01:10:33.393Z,32
2018-06-28T01:10:45.812Z,31
2018-06-28T01:10:58.225Z,31
2018-06-28T01:11:10.638Z,31
2018-06-28T01:11:23.034Z,49
2018-06-28T01:11:35.462Z,53
2018-06-28T01:11:47.885Z,50
2018-06-28T01:12:00.285Z,50
2018-06-28T01:12:12.694Z,14
2018-06-28T01:12:25.081Z,46
2018-06-28T01:12:37.485Z,5
2018-06-28T01:12:49.891Z,5
2018-06-28T01:13:02.315Z,5
2018-06-28T01:13:14.731Z,360
2018-06-28T01:13:27.136Z,351
2018-06-28T01:13:39.547Z,351
2018-06-28T01:13:52.053Z,35
2018-06-28T01:14:04.509Z,24
2018-06-28T01:14:16.908Z,30
2018-06-28T01:14:29.305Z,22
2018-06-28T01:14:41.723Z,22
2018-06-28T01:14:54.128Z,19
2018-06-28T01:15:06.542Z,19
2018-06-28T01:15:18.944Z,19
2018-06-28T01:15:31.407Z,5
2018-06-28T01:15:43.821Z,5
2018-06-28T01:15:56.241Z,342
2018-06-28T01:16:08.639Z,22
2018-06-28T01:16:21.045Z,32
2018-06-28T01:16:33.453Z,53
2018-06-28T01:16:45.841Z,11
2018-06-28T01:16:58.243Z,12
2018-06-28T01:17:10.641Z,26
2018-06-28T01:17:23.042Z,28
2018-06-28T01:17:35.448Z,44
2018-06-28T01:17:47.867Z,42
2018-06-28T01:18:00.270Z,42
2018-06-28T01:18:12.678Z,42
2018-06-28T01:18:25.085Z,327
2018-06-28T01:18:37.688Z,327
2018-06-28T01:18:50.098Z,327
2018-06-28T01:19:02.545Z,327
2018-06-28T01:19:14.952Z,327
2018-06-28T01:19:27.416Z,327
2018-06-28T01:19:39.817Z,32
2018-06-28T01:19:52.244Z,33
2018-06-28T01:20:04.654Z,38
2018-06-28T01:20:17.072Z,51
2018-06-28T01:20:29.481Z,344
2018-06-28T01:20:41.896Z,360
2018-06-28T01:20:54.307Z,12
2018-06-28T01:21:06.728Z,332
2018-06-28T01:21:19.189Z,360
2018-06-28T01:21:31.600Z,360
2018-06-28T01:21:44.008Z,360
2018-06-28T01:21:56.440Z,360
2018-06-28T01:22:08.877Z,360
2018-06-28T01:22:21.272Z,360
2018-06-28T01:22:33.671Z,360
2018-06-28T01:22:46.076Z,360
2018-06-28T01:22:58.544Z,360
2018-06-28T01:23:11.155Z,360
2018-06-28T01:23:23.566Z,360
2018-06-28T01:23:35.962Z,360
2018-06-28T01:23:48.376Z,360
2018-06-28T01:24:00.940Z,360
2018-06-28T01:24:13.350Z,5
2018-06-28T01:24:25.768Z,19
2018-06-28T01:24:38.200Z,19
2018-06-28T01:24:50.608Z,355
2018-06-28T01:25:03.045Z,355
2018-06-28T01:25:15.477Z,347
2018-06-28T01:25:27.899Z,343
2018-06-28T01:25:40.307Z,46
2018-06-28T01:25:52.722Z,63
2018-06-28T01:26:05.180Z,45
2018-06-28T01:26:17.592Z,360
2018-06-28T01:26:29.997Z,355
2018-06-28T01:26:42.417Z,28
2018-06-28T01:26:54.824Z,28
2018-06-28T01:27:07.259Z,28
2018-06-28T01:27:19.687Z,28
2018-06-28T01:27:32.092Z,28
2018-06-28T01:27:44.494Z,28
2018-06-28T01:27:56.905Z,36
2018-06-28T01:28:09.311Z,74
2018-06-28T01:28:21.729Z,69
2018-06-28T01:28:34.134Z,38
2018-06-28T01:28:46.551Z,58
2018-06-28T01:28:58.973Z,64
2018-06-28T01:29:11.420Z,64
2018-06-28T01:29:23.843Z,63
2018-06-28T01:29:36.272Z,63
2018-06-28T01:29:48.695Z,63
2018-06-28T01:30:01.105Z,63
2018-06-28T01:30:13.543Z,63
2018-06-28T01:30:25.949Z,63
2018-06-28T01:30:38.367Z,63
2018-06-28T01:30:50.786Z,306
2018-06-28T01:31:03.188Z,321
2018-06-28T01:31:15.607Z,11
2018-06-28T01:31:28.010Z,14
2018-06-28T01:31:40.430Z,38
2018-06-28T01:31:52.838Z,65
2018-06-28T01:32:05.244Z,65
2018-06-28T01:32:17.660Z,27
2018-06-28T01:32:30.100Z,15
2018-06-28T01:32:42.590Z,355
2018-06-28T01:32:54.990Z,58
2018-06-28T01:33:07.397Z,58
2018-06-28T01:33:19.803Z,55
2018-06-28T01:33:32.207Z,55
2018-06-28T01:33:44.600Z,55
2018-06-28T01:33:57.005Z,55
2018-06-28T01:34:09.416Z,26
2018-06-28T01:34:21.845Z,19
2018-06-28T01:34:34.255Z,360
2018-06-28T01:34:46.662Z,360
2018-06-28T01:34:59.091Z,355
2018-06-28T01:35:11.512Z,348
2018-06-28T01:35:23.923Z,355
2018-06-28T01:35:36.336Z,11
2018-06-28T01:35:48.751Z,11
2018-06-28T01:36:01.418Z,11
2018-06-28T01:36:13.837Z,11
2018-06-28T01:36:26.243Z,11
2018-06-28T01:36:38.676Z,11
2018-06-28T01:36:51.138Z,11
2018-06-28T01:37:03.569Z,9
2018-06-28T01:37:15.972Z,9
2018-06-28T01:37:28.378Z,9
2018-06-28T01:37:40.782Z,9
2018-06-28T01:37:53.320Z,9
2018-06-28T01:38:05.723Z,325
2018-06-28T01:38:18.131Z,346
2018-06-28T01:38:30.527Z,360
2018-06-28T01:38:42.966Z,360
2018-06-28T01:38:55.433Z,360
2018-06-28T01:39:07.833Z,360
2018-06-28T01:39:20.249Z,360
2018-06-28T01:39:32.664Z,360
2018-06-28T01:39:45.085Z,360
2018-06-28T01:39:57.497Z,360
2018-06-28T01:40:09.918Z,360
2018-06-28T01:40:22.332Z,360
2018-06-28T01:40:34.796Z,360
2018-06-28T01:40:47.212Z,51
2018-06-28T01:40:59.632Z,40
2018-06-28T01:41:12.053Z,11
2018-06-28T01:41:24.466Z,360
2018-06-28T01:41:36.870Z,17
2018-06-28T01:41:49.348Z,46
2018-06-28T01:42:01.840Z,36
2018-06-28T01:42:14.241Z,30
2018-06-28T01:42:26.641Z,38
2018-06-28T01:42:39.059Z,24
2018-06-28T01:42:51.500Z,25
2018-06-28T01:43:03.919Z,36
2018-06-28T01:43:16.318Z,47
2018-06-28T01:43:28.727Z,39
2018-06-28T01:43:41.157Z,24
2018-06-28T01:43:53.565Z,349
2018-06-28T01:44:05.968Z,350
2018-06-28T01:44:18.378Z,350
2018-06-28T01:44:30.797Z,350
2018-06-28T01:44:43.206Z,10
2018-06-28T01:44:55.633Z,10
2018-06-28T01:45:08.033Z,10
2018-06-28T01:45:20.456Z,10
2018-06-28T01:45:32.868Z,10
2018-06-28T01:45:45.286Z,10
2018-06-28T01:45:57.768Z,10
2018-06-28T01:46:10.186Z,331
2018-06-28T01:46:22.628Z,346
2018-06-28T01:46:35.035Z,331
2018-06-28T01:46:47.849Z,355
2018-06-28T01:47:01.101Z,355
2018-06-28T01:47:13.517Z,355
2018-06-28T01:47:25.922Z,355
2018-06-28T01:47:38.332Z,355
2018-06-28T01:47:50.869Z,355
2018-06-28T01:48:03.346Z,355
2018-06-28T01:48:15.808Z,36
2018-06-28T01:48:28.228Z,40
2018-06-28T01:48:40.699Z,34
2018-06-28T01:48:53.156Z,34
2018-06-28T01:49:05.600Z,32
2018-06-28T01:49:18.015Z,32
2018-06-28T01:49:30.427Z,32
2018-06-28T01:49:42.867Z,32
2018-06-28T01:49:55.299Z,349
2018-06-28T01:50:07.718Z,22
2018-06-28T01:50:20.141Z,22
2018-06-28T01:50:32.564Z,22
2018-06-28T01:50:45.022Z,22
2018-06-28T01:50:57.442Z,22
2018-06-28T01:51:09.947Z,22
2018-06-28T01:51:22.386Z,9
2018-06-28T01:51:34.810Z,350
2018-06-28T01:51:47.214Z,30
2018-06-28T01:51:59.630Z,360
2018-06-28T01:52:12.109Z,17
2018-06-28T01:52:24.523Z,336
2018-06-28T01:52:36.932Z,13
2018-06-28T01:52:49.353Z,30
2018-06-28T01:53:02.276Z,31
2018-06-28T01:53:15.150Z,31
2018-06-28T01:53:27.575Z,31
2018-06-28T01:53:40.041Z,13
2018-06-28T01:53:52.444Z,19
2018-06-28T01:54:04.863Z,19
2018-06-28T01:54:17.325Z,19
2018-06-28T01:54:29.745Z,19
2018-06-28T01:54:42.161Z,30
2018-06-28T01:54:54.581Z,31
2018-06-28T01:55:06.993Z,32
2018-06-28T01:55:19.479Z,32
2018-06-28T01:55:31.924Z,32
2018-06-28T01:55:44.494Z,31
2018-06-28T01:55:56.922Z,31
2018-06-28T01:56:09.340Z,31
2018-06-28T01:56:21.749Z,31
2018-06-28T01:56:34.153Z,31
2018-06-28T01:56:46.580Z,31
2018-06-28T01:56:59.012Z,31
2018-06-28T01:57:11.413Z,31
2018-06-28T01:57:23.831Z,29
2018-06-28T01:57:36.233Z,63
2018-06-28T01:57:48.628Z,9
2018-06-28T01:58:01.037Z,13
2018-06-28T01:58:13.452Z,13
2018-06-28T01:58:25.876Z,14
2018-06-28T01:58:38.276Z,11
2018-06-28T01:58:50.690Z,10
2018-06-28T01:59:03.118Z,10
2018-06-28T01:59:15.516Z,342
2018-06-28T01:59:27.929Z,342
2018-06-28T01:59:40.334Z,355
2018-06-28T01:59:52.730Z,343
2018-06-28T02:00:05.155Z,344
2018-06-28T02:00:17.585Z,348
2018-06-28T02:00:30.032Z,360
2018-06-28T02:00:42.567Z,360
2018-06-28T02:00:55.067Z,344
2018-06-28T02:01:07.778Z,5
2018-06-28T02:01:20.268Z,52
2018-06-28T02:01:32.686Z,13
2018-06-28T02:01:45.134Z,34
2018-06-28T02:01:57.563Z,360
2018-06-28T02:02:09.993Z,49
2018-06-28T02:02:22.410Z,44
2018-06-28T02:02:34.829Z,42
2018-06-28T02:02:47.289Z,336
2018-06-28T02:02:59.747Z,336
2018-06-28T02:03:12.186Z,336
2018-06-28T02:03:24.598Z,336
2018-06-28T02:03:37.006Z,337
2018-06-28T02:03:49.415Z,337
2018-06-28T02:04:01.866Z,337
2018-06-28T02:04:14.296Z,337
2018-06-28T02:04:26.719Z,337
2018-06-28T02:04:39.139Z,337
2018-06-28T02:04:51.557Z,337
2018-06-28T02:05:03.975Z,337
2018-06-28T02:05:16.420Z,337
2018-06-28T02:05:28.825Z,343
2018-06-28T02:05:41.301Z,343
2018-06-28T02:05:53.720Z,321
2018-06-28T02:06:06.135Z,25
2018-06-28T02:06:18.567Z,41
2018-06-28T02:06:30.981Z,5
2018-06-28T02:06:43.399Z,55
2018-06-28T02:06:55.793Z,55
2018-06-28T02:07:08.397Z,32
2018-06-28T02:07:20.815Z,14
2018-06-28T02:07:33.214Z,13
2018-06-28T02:07:45.620Z,13
2018-06-28T02:07:58.018Z,13
2018-06-28T02:08:10.612Z,13
2018-06-28T02:08:23.083Z,13
2018-06-28T02:08:35.488Z,13
2018-06-28T02:08:47.918Z,22
2018-06-28T02:09:00.326Z,360
2018-06-28T02:09:12.737Z,19
2018-06-28T02:09:25.147Z,12
2018-06-28T02:09:37.570Z,28
2018-06-28T02:09:49.975Z,24
2018-06-28T02:10:02.397Z,24
2018-06-28T02:10:14.816Z,24
2018-06-28T02:10:27.231Z,24
2018-06-28T02:10:39.722Z,24
2018-06-28T02:10:52.132Z,24
2018-06-28T02:11:04.566Z,338
2018-06-28T02:11:16.990Z,5
2018-06-28T02:11:29.409Z,9
2018-06-28T02:11:41.837Z,5
2018-06-28T02:11:54.238Z,5
2018-06-28T02:12:06.645Z,10
2018-06-28T02:12:19.048Z,15
2018-06-28T02:12:31.450Z,332
2018-06-28T02:12:43.896Z,360
2018-06-28T02:12:56.302Z,360
2018-06-28T02:13:08.701Z,36
2018-06-28T02:13:21.161Z,36
2018-06-28T02:13:33.562Z,34
2018-06-28T02:13:45.986Z,34
2018-06-28T02:13:58.389Z,36
2018-06-28T02:14:10.781Z,34
2018-06-28T02:14:23.175Z,340
2018-06-28T02:14:35.571Z,9
2018-06-28T02:14:48.042Z,5
2018-06-28T02:15:00.460Z,351
2018-06-28T02:15:12.898Z,29
2018-06-28T02:15:25.305Z,5
2018-06-28T02:15:37.739Z,5
2018-06-28T02:15:50.147Z,5
2018-06-28T02:16:02.561Z,5
2018-06-28T02:16:15.013Z,5
2018-06-28T02:16:27.542Z,5
2018-06-28T02:16:39.954Z,5
2018-06-28T02:16:52.386Z,5
2018-06-28T02:17:04.821Z,5
2018-06-28T02:17:17.233Z,5
2018-06-28T02:17:29.636Z,5
2018-06-28T02:17:42.032Z,5
2018-06-28T02:17:54.450Z,5
2018-06-28T02:18:06.859Z,5
2018-06-28T02:18:19.277Z,5
2018-06-28T02:18:31.689Z,27
2018-06-28T02:18:44.143Z,30
2018-06-28T02:18:56.556Z,14
2018-06-28T02:19:08.995Z,14
2018-06-28T02:19:21.423Z,355
2018-06-28T02:19:33.834Z,355
2018-06-28T02:19:46.237Z,355
2018-06-28T02:19:58.644Z,5
2018-06-28T02:20:11.054Z,5
2018-06-28T02:20:23.480Z,5
2018-06-28T02:20:35.894Z,5
2018-06-28T02:20:48.294Z,5
2018-06-28T02:21:00.723Z,5
2018-06-28T02:21:13.143Z,5
2018-06-28T02:21:25.582Z,5
2018-06-28T02:21:38.004Z,5
2018-06-28T02:21:50.412Z,5
2018-06-28T02:22:02.836Z,5
2018-06-28T02:22:15.252Z,342
2018-06-28T02:22:27.684Z,34
2018-06-28T02:22:40.095Z,49
2018-06-28T02:22:52.514Z,45
2018-06-28T02:23:05.100Z,44
2018-06-28T02:23:17.513Z,13
2018-06-28T02:23:29.974Z,5
2018-06-28T02:23:42.378Z,9
2018-06-28T02:23:54.789Z,49
2018-06-28T02:24:07.373Z,51
2018-06-28T02:24:19.800Z,43
2018-06-28T02:24:32.200Z,43
2018-06-28T02:24:44.601Z,43
2018-06-28T02:24:57.020Z,42
2018-06-28T02:25:09.434Z,42
2018-06-28T02:25:21.896Z,42
2018-06-28T02:25:34.298Z,42
2018-06-28T02:25:46.710Z,42
2018-06-28T02:25:59.131Z,42
2018-06-28T02:26:11.609Z,42
2018-06-28T02:26:24.014Z,38
2018-06-28T02:26:36.417Z,5
2018-06-28T02:26:48.817Z,11
2018-06-28T02:27:01.219Z,350
2018-06-28T02:27:13.623Z,350
2018-06-28T02:27:26.027Z,350
2018-06-28T02:27:38.416Z,350
2018-06-28T02:27:50.824Z,350
2018-06-28T02:28:03.269Z,350
2018-06-28T02:28:15.743Z,350
2018-06-28T02:28:28.197Z,349
2018-06-28T02:28:40.608Z,348
2018-06-28T02:28:53.061Z,351
2018-06-28T02:29:05.534Z,344
2018-06-28T02:29:17.932Z,5
2018-06-28T02:29:30.346Z,9
2018-06-28T02:29:42.751Z,10
2018-06-28T02:29:55.167Z,10
2018-06-28T02:30:07.587Z,10
2018-06-28T02:30:20.061Z,10
2018-06-28T02:30:32.528Z,10
2018-06-28T02:30:44.964Z,9
2018-06-28T02:30:57.413Z,5
2018-06-28T02:31:09.827Z,5
2018-06-28T02:31:22.252Z,5
2018-06-28T02:31:34.676Z,5
2018-06-28T02:31:47.113Z,5
2018-06-28T02:31:59.546Z,5
2018-06-28T02:32:12.029Z,5
2018-06-28T02:32:24.446Z,5
2018-06-28T02:32:36.976Z,5
2018-06-28T02:32:49.389Z,5
2018-06-28T02:33:01.795Z,5
2018-06-28T02:33:14.271Z,11
2018-06-28T02:33:26.704Z,11
2018-06-28T02:33:39.124Z,11
2018-06-28T02:33:51.540Z,11
2018-06-28T02:34:03.987Z,11
2018-06-28T02:34:16.415Z,11
2018-06-28T02:34:28.857Z,28
2018-06-28T02:34:41.274Z,29
2018-06-28T02:34:53.697Z,29
2018-06-28T02:35:06.154Z,52
2018-06-28T02:35:18.589Z,47
2018-06-28T02:35:31.020Z,360
2018-06-28T02:35:43.521Z,360
2018-06-28T02:35:56.016Z,360
2018-06-28T02:36:08.763Z,360
2018-06-28T02:36:21.184Z,38
2018-06-28T02:36:33.672Z,42
2018-06-28T02:36:46.103Z,344
2018-06-28T02:36:58.543Z,350
2018-06-28T02:37:10.972Z,350
2018-06-28T02:37:23.433Z,350
2018-06-28T02:37:35.859Z,350
2018-06-28T02:37:48.273Z,28
2018-06-28T02:38:00.697Z,13
2018-06-28T02:38:13.153Z,360
2018-06-28T02:38:25.824Z,5
2018-06-28T02:38:38.260Z,5
2018-06-28T02:38:50.685Z,37
2018-06-28T02:39:03.130Z,5
2018-06-28T02:39:15.572Z,9
2018-06-28T02:39:27.984Z,28
2018-06-28T02:39:40.486Z,43
2018-06-28T02:39:52.916Z,351
2018-06-28T02:40:05.430Z,360
2018-06-28T02:40:17.856Z,339
2018-06-28T02:40:30.278Z,355
2018-06-28T02:40:42.706Z,16
2018-06-28T02:40:55.196Z,32
2018-06-28T02:41:07.662Z,54
2018-06-28T02:41:20.091Z,49
2018-06-28T02:41:32.512Z,39
2018-06-28T02:41:44.964Z,32
2018-06-28T02:41:57.412Z,31
2018-06-28T02:42:09.845Z,335
2018-06-28T02:42:22.259Z,17
2018-06-28T02:42:34.681Z,17
2018-06-28T02:42:47.115Z,44
2018-06-28T02:42:59.603Z,5
2018-06-28T02:43:12.089Z,329
2018-06-28T02:43:24.535Z,9
2018-06-28T02:43:36.987Z,9
2018-06-28T02:43:49.453Z,5
2018-06-28T02:44:01.883Z,317
2018-06-28T02:44:14.343Z,317
2018-06-28T02:44:26.767Z,317
2018-06-28T02:44:39.193Z,33
2018-06-28T02:44:51.621Z,36
2018-06-28T02:45:04.056Z,42
2018-06-28T02:45:16.490Z,42
2018-06-28T02:45:28.913Z,35
2018-06-28T02:45:41.345Z,23
2018-06-28T02:45:53.955Z,49
2018-06-28T02:46:06.402Z,40
2018-06-28T02:46:18.834Z,39
2018-06-28T02:46:31.268Z,39
2018-06-28T02:46:43.705Z,39
2018-06-28T02:46:56.112Z,39
2018-06-28T02:47:08.531Z,39
2018-06-28T02:47:20.961Z,39
2018-06-28T02:47:33.390Z,39
2018-06-28T02:47:45.823Z,39
2018-06-28T02:47:58.239Z,39
2018-06-28T02:48:10.660Z,39
2018-06-28T02:48:23.094Z,39
2018-06-28T02:48:35.529Z,39
2018-06-28T02:48:48.123Z,39
2018-06-28T02:49:00.592Z,334
2018-06-28T02:49:13.021Z,334
2018-06-28T02:49:25.448Z,334
2018-06-28T02:49:37.919Z,309
2018-06-28T02:49:50.354Z,333
2018-06-28T02:50:02.807Z,333
2018-06-28T02:50:15.227Z,333
2018-06-28T02:50:27.670Z,333
2018-06-28T02:50:40.100Z,333
2018-06-28T02:50:52.523Z,333
2018-06-28T02:51:04.982Z,340
2018-06-28T02:51:17.419Z,340
2018-06-28T02:51:29.851Z,340
2018-06-28T02:51:42.270Z,340
2018-06-28T02:51:54.699Z,340
2018-06-28T02:52:07.121Z,340
2018-06-28T02:52:19.564Z,340
2018-06-28T02:52:32.019Z,342
2018-06-28T02:52:44.440Z,342
2018-06-28T02:52:56.886Z,355
2018-06-28T02:53:09.311Z,355
2018-06-28T02:53:21.737Z,355
2018-06-28T02:53:34.211Z,355
2018-06-28T02:53:46.674Z,320
2018-06-28T02:53:59.143Z,339
2018-06-28T02:54:11.569Z,339
2018-06-28T02:54:23.995Z,339
2018-06-28T02:54:36.413Z,339
2018-06-28T02:54:48.826Z,339
2018-06-28T02:55:01.257Z,350
2018-06-28T02:55:13.700Z,350
2018-06-28T02:55:26.133Z,350
2018-06-28T02:55:38.583Z,350
2018-06-28T02:55:51.009Z,350